Time;durP1;ratioP1;P1;durP2;ratioP2;P2;SDS_P1;SDS_P2;PMS_P1;PMS_P2;Temp;Humidity;BMP_temperature;BMP_pressure;BME280_temperature;BME280_humidity;BME280_pressure;Samples;Min_cycle;Max_cycle;Signal;HPM_P1;HPM_P2
2022/09/18 00:01:46;;;;;;;3.63;1.93;;;14.60;99.90;;;;;;6067765;23;20503;-78
2022/09/18 00:04:14;;;;;;;2.37;1.33;;;14.60;99.90;;;;;;6068382;23;20436;-78
2022/09/18 00:06:44;;;;;;;4.50;1.83;;;14.50;99.90;;;;;;6068561;23;20447;-78
2022/09/18 00:09:15;;;;;;;3.93;1.73;;;14.50;99.90;;;;;;6068782;23;20797;-78
2022/09/18 00:11:46;;;;;;;3.80;2.20;;;14.50;99.90;;;;;;6067567;23;20479;-78
2022/09/18 00:14:17;;;;;;;1.73;1.63;;;14.50;99.90;;;;;;6068821;23;20500;-76
2022/09/18 00:16:44;;;;;;;3.30;2.10;;;14.40;99.90;;;;;;6068175;23;20428;-75
2022/09/18 00:19:17;;;;;;;2.67;1.77;;;14.40;99.90;;;;;;6068912;23;20440;-77
2022/09/18 00:21:46;;;;;;;1.88;1.73;;;14.40;99.90;;;;;;6055132;23;20267;-79
2022/09/18 00:24:16;;;;;;;2.35;2.00;;;14.30;99.90;;;;;;6068756;23;20204;-79
2022/09/18 00:26:43;;;;;;;2.20;1.93;;;14.40;99.90;;;;;;6067622;23;20204;-78
2022/09/18 00:29:11;;;;;;;3.87;2.03;;;14.30;99.90;;;;;;6068777;23;20516;-78
2022/09/18 00:31:40;;;;;;;2.23;2.13;;;14.30;99.90;;;;;;6067470;23;20441;-78
2022/09/18 00:34:09;;;;;;;1.73;1.63;;;14.30;99.90;;;;;;6068056;23;20451;-78
2022/09/18 00:36:37;;;;;;;1.67;1.57;;;14.30;99.90;;;;;;6068142;23;20507;-77
2022/09/18 00:39:05;;;;;;;1.97;1.83;;;14.30;99.90;;;;;;6067962;23;20460;-76
2022/09/18 00:41:37;;;;;;;1.63;1.33;;;14.30;99.90;;;;;;6067959;23;20472;-77
2022/09/18 00:44:35;;;;;;;3.43;1.97;;;14.30;99.90;;;;;;6068626;23;20444;-77
2022/09/18 00:47:19;;;;;;;2.42;1.42;;;14.30;99.90;;;;;;6068913;23;20504;-75
2022/09/18 00:49:51;;;;;;;1.70;1.57;;;14.30;99.90;;;;;;6068435;23;20199;-77
2022/09/18 00:52:21;;;;;;;1.20;1.10;;;14.20;99.90;;;;;;6068199;23;20503;-76
2022/09/18 00:54:52;;;;;;;1.10;1.00;;;14.20;99.90;;;;;;6067854;23;20448;-78
2022/09/18 00:57:25;;;;;;;2.10;1.10;;;14.20;99.90;;;;;;6068184;23;20444;-78
2022/09/18 00:59:56;;;;;;;1.40;1.30;;;14.20;99.90;;;;;;6067652;23;20436;-78
2022/09/18 01:02:26;;;;;;;1.30;1.20;;;14.20;99.90;;;;;;6068062;23;20463;-78
2022/09/18 01:04:54;;;;;;;1.53;0.90;;;14.20;99.90;;;;;;6067561;23;20212;-76
2022/09/18 01:07:34;;;;;;;1.13;0.90;;;14.20;99.90;;;;;;6068023;23;20932;-76
2022/09/18 01:10:14;;;;;;;1.73;0.93;;;14.20;99.90;;;;;;6067944;23;20468;-76
2022/09/18 01:12:50;;;;;;;1.00;0.85;;;14.20;99.90;;;;;;6067952;23;20455;-78
2022/09/18 01:15:26;;;;;;;1.30;0.90;;;14.10;99.90;;;;;;6069108;23;20195;-78
2022/09/18 01:18:00;;;;;;;2.10;0.80;;;14.10;99.90;;;;;;6069670;23;20208;-76
2022/09/18 01:20:43;;;;;;;1.02;0.90;;;14.00;99.90;;;;;;6069920;23;20444;-77
2022/09/18 01:23:30;;;;;;;1.17;1.03;;;14.00;99.90;;;;;;6069610;23;20204;-76
2022/09/18 01:26:10;;;;;;;1.40;1.00;;;14.00;99.90;;;;;;6069829;23;20450;-78
2022/09/18 01:28:44;;;;;;;1.03;0.93;;;14.00;99.90;;;;;;6070436;23;20427;-78
2022/09/18 01:31:19;;;;;;;0.83;0.70;;;13.90;99.90;;;;;;6069979;23;20440;-77
2022/09/18 01:33:54;;;;;;;5.47;0.80;;;13.90;99.90;;;;;;6069973;23;20478;-77
2022/09/18 01:36:27;;;;;;;1.33;1.08;;;13.90;99.90;;;;;;6069504;23;20889;-77
2022/09/18 01:39:01;;;;;;;3.10;0.93;;;13.90;99.90;;;;;;6070094;23;20632;-78
2022/09/18 01:41:32;;;;;;;1.40;0.98;;;13.90;99.90;;;;;;6068876;23;20443;-78
2022/09/18 01:44:05;;;;;;;1.88;0.90;;;13.90;99.90;;;;;;6069899;23;20263;-78
2022/09/18 01:46:34;;;;;;;2.08;0.80;;;13.90;99.90;;;;;;6069463;23;20204;-78
2022/09/18 01:49:05;;;;;;;0.80;0.68;;;13.90;99.90;;;;;;6070326;23;20228;-77
2022/09/18 01:51:37;;;;;;;1.77;0.90;;;13.90;99.90;;;;;;6069358;23;20211;-76
2022/09/18 01:54:08;;;;;;;1.10;1.00;;;13.80;99.90;;;;;;6069570;23;20507;-79
2022/09/18 01:56:38;;;;;;;1.02;0.98;;;13.80;99.90;;;;;;6069268;23;20238;-79
2022/09/18 01:59:13;;;;;;;0.70;0.70;;;13.80;99.90;;;;;;6069319;23;20204;-78
2022/09/18 02:01:42;;;;;;;0.93;0.70;;;13.80;99.90;;;;;;6069542;23;20631;-78
2022/09/18 02:04:19;;;;;;;0.97;0.70;;;13.80;99.90;;;;;;6051120;23;20208;-76
2022/09/18 02:06:51;;;;;;;1.73;0.98;;;13.80;99.90;;;;;;6069907;23;20440;-78
2022/09/18 02:09:19;;;;;;;1.20;0.70;;;13.80;99.90;;;;;;6069201;23;20658;-75
2022/09/18 02:11:56;;;;;;;0.80;0.70;;;13.80;99.90;;;;;;6069776;23;20219;-78
2022/09/18 02:14:29;;;;;;;1.20;0.90;;;13.80;99.90;;;;;;6069141;23;20283;-76
2022/09/18 02:17:00;;;;;;;1.63;0.73;;;13.80;99.90;;;;;;6069984;23;20578;-78
2022/09/18 02:19:34;;;;;;;0.95;0.80;;;13.80;99.90;;;;;;6069665;23;20199;-75
2022/09/18 02:22:04;;;;;;;2.00;0.80;;;13.80;99.90;;;;;;6069110;23;20224;-76
2022/09/18 02:24:36;;;;;;;2.03;0.75;;;13.80;99.90;;;;;;6069335;23;20207;-77
2022/09/18 02:27:04;;;;;;;1.42;0.77;;;13.80;99.90;;;;;;6069448;23;20208;-76
2022/09/18 02:29:33;;;;;;;2.65;0.90;;;13.80;99.90;;;;;;6068994;23;20231;-77
2022/09/18 02:32:02;;;;;;;1.10;1.00;;;13.80;99.90;;;;;;6068915;23;20216;-76
2022/09/18 02:34:32;;;;;;;0.90;0.80;;;13.70;99.90;;;;;;6068198;23;20207;-78
2022/09/18 02:37:13;;;;;;;1.17;0.98;;;13.80;99.90;;;;;;6069868;23;20203;-79
2022/09/18 02:39:51;;;;;;;1.85;1.00;;;13.80;99.90;;;;;;6068953;23;20232;-77
2022/09/18 02:42:29;;;;;;;2.95;0.85;;;13.70;99.90;;;;;;6068855;23;20283;-77
2022/09/18 02:45:09;;;;;;;4.32;1.23;;;13.70;99.90;;;;;;6068423;23;20200;-78
2022/09/18 02:47:54;;;;;;;1.58;1.10;;;13.70;99.90;;;;;;6069028;23;20628;-78
2022/09/18 02:50:28;;;;;;;4.50;1.98;;;13.70;99.90;;;;;;6069126;23;20208;-79
2022/09/18 02:53:02;;;;;;;3.25;1.48;;;13.70;99.90;;;;;;6069359;23;20282;-77
2022/09/18 02:55:37;;;;;;;1.27;1.10;;;13.70;99.90;;;;;;6068874;23;20208;-79
2022/09/18 02:58:10;;;;;;;1.67;0.90;;;13.70;99.90;;;;;;6069251;23;20496;-77
2022/09/18 03:00:42;;;;;;;4.22;1.42;;;13.70;99.90;;;;;;6068358;23;20441;-79
2022/09/18 03:03:14;;;;;;;1.88;1.40;;;13.70;99.90;;;;;;6068595;23;20196;-78
2022/09/18 03:05:45;;;;;;;3.72;1.70;;;13.70;99.90;;;;;;6068409;23;20203;-77
2022/09/18 03:08:13;;;;;;;5.53;2.28;;;13.70;99.90;;;;;;6054519;23;20277;-78
2022/09/18 03:10:42;;;;;;;4.78;2.00;;;13.70;99.90;;;;;;6067691;23;20200;-79
2022/09/18 03:13:09;;;;;;;7.88;2.15;;;13.60;99.90;;;;;;6069708;23;20204;-78
2022/09/18 03:15:36;;;;;;;2.63;1.60;;;13.60;99.90;;;;;;6066867;23;20223;-77
2022/09/18 03:18:04;;;;;;;5.00;1.60;;;13.60;99.90;;;;;;6070086;23;20204;-78
2022/09/18 03:20:31;;;;;;;3.05;1.60;;;13.70;99.90;;;;;;6068553;23;20212;-77
2022/09/18 03:22:58;;;;;;;3.72;2.03;;;13.70;99.90;;;;;;6069408;23;20665;-77
2022/09/18 03:25:26;;;;;;;6.57;1.83;;;13.70;99.90;;;;;;6067418;23;20205;-77
2022/09/18 03:27:54;;;;;;;7.03;1.93;;;13.70;99.90;;;;;;6068209;23;20212;-76
2022/09/18 03:30:23;;;;;;;3.83;1.80;;;13.70;99.90;;;;;;6068416;23;20437;-77
2022/09/18 03:32:52;;;;;;;6.55;1.80;;;13.70;99.90;;;;;;6068364;23;20263;-77
2022/09/18 03:35:21;;;;;;;4.95;2.05;;;13.70;99.90;;;;;;6069203;23;20208;-77
2022/09/18 03:37:55;;;;;;;7.47;1.70;;;13.70;99.90;;;;;;6067398;23;20657;-79
2022/09/18 03:40:22;;;;;;;6.57;2.13;;;13.70;99.90;;;;;;6068895;23;20204;-78
2022/09/18 03:42:49;;;;;;;5.00;1.83;;;13.70;99.90;;;;;;6067513;23;20440;-77
2022/09/18 03:45:17;;;;;;;6.80;1.98;;;13.70;99.90;;;;;;6067872;23;20208;-78
2022/09/18 03:47:45;;;;;;;5.00;2.13;;;13.70;99.90;;;;;;6068504;23;20208;-77
2022/09/18 03:50:13;;;;;;;6.32;2.78;;;13.60;99.90;;;;;;6069003;23;20437;-76
2022/09/18 03:52:42;;;;;;;2.50;1.75;;;13.60;99.90;;;;;;6067966;23;20208;-77
2022/09/18 03:55:09;;;;;;;2.42;1.88;;;13.60;99.90;;;;;;6068995;23;20204;-78
2022/09/18 03:57:36;;;;;;;5.90;1.80;;;13.70;99.90;;;;;;6067154;23;20204;-78
2022/09/18 04:00:04;;;;;;;5.97;2.27;;;13.70;99.90;;;;;;6067855;23;20196;-78
2022/09/18 04:02:31;;;;;;;4.40;2.47;;;13.70;99.90;;;;;;6068588;23;20515;-77
2022/09/18 04:04:59;;;;;;;9.65;3.08;;;13.70;99.90;;;;;;6068629;23;20200;-75
2022/09/18 04:07:26;;;;;;;7.75;2.70;;;13.70;99.90;;;;;;6068933;23;20215;-75
2022/09/18 04:09:54;;;;;;;4.28;2.22;;;13.60;99.90;;;;;;6053847;23;20211;-78
2022/09/18 04:12:21;;;;;;;10.07;2.85;;;13.60;99.90;;;;;;6068075;23;20641;-77
2022/09/18 04:14:48;;;;;;;5.72;2.40;;;13.60;99.90;;;;;;6068199;23;20235;-77
2022/09/18 04:17:15;;;;;;;5.78;2.92;;;13.60;99.90;;;;;;6068148;23;20637;-78
2022/09/18 04:19:43;;;;;;;5.40;2.40;;;13.60;99.90;;;;;;6067922;23;20671;-76
2022/09/18 04:22:09;;;;;;;3.67;2.30;;;13.60;99.90;;;;;;6068870;23;20215;-77
2022/09/18 04:24:38;;;;;;;5.70;2.83;;;13.60;99.90;;;;;;6068707;23;20275;-77
2022/09/18 04:27:07;;;;;;;7.35;2.78;;;13.60;99.90;;;;;;6067708;23;20738;-79
2022/09/18 04:29:34;;;;;;;6.85;3.00;;;13.60;99.90;;;;;;6068917;23;20532;-76
2022/09/18 04:32:01;;;;;;;7.68;2.40;;;13.60;99.90;;;;;;6067450;23;20274;-78
2022/09/18 04:34:28;;;;;;;8.40;3.00;;;13.60;99.90;;;;;;6068973;23;20204;-76
2022/09/18 04:36:55;;;;;;;2.60;1.80;;;13.60;99.90;;;;;;6067818;23;20538;-78
2022/09/18 04:39:22;;;;;;;6.78;3.42;;;13.60;99.90;;;;;;6068040;23;20445;-77
2022/09/18 04:41:50;;;;;;;7.90;2.97;;;13.60;99.90;;;;;;6067494;23;20235;-79
2022/09/18 04:44:18;;;;;;;3.70;2.30;;;13.60;99.90;;;;;;6068643;23;20196;-77
2022/09/18 04:46:45;;;;;;;5.40;3.13;;;13.60;99.90;;;;;;6068048;23;20956;-76
2022/09/18 04:49:12;;;;;;;7.45;3.08;;;13.50;99.90;;;;;;6067710;23;20203;-75
2022/09/18 04:51:39;;;;;;;3.70;2.60;;;13.50;99.90;;;;;;6067160;23;20204;-77
2022/09/18 04:54:06;;;;;;;5.75;2.75;;;13.50;99.90;;;;;;6067818;23;20200;-76
2022/09/18 04:56:33;;;;;;;5.30;3.03;;;13.50;99.90;;;;;;6068804;23;20204;-77
2022/09/18 05:02:24;;;;;;;;;;;;;;;;;;;;;
2022/09/18 05:04:51;;;;;;;4.87;2.43;;;13.50;99.90;;;;;;6067257;23;20214;-77
2022/09/18 05:07:18;;;;;;;8.18;3.70;;;13.50;99.90;;;;;;6068057;23;20515;-76
2022/09/18 05:09:45;;;;;;;3.25;2.53;;;13.50;99.90;;;;;;6067364;23;20652;-78
2022/09/18 05:12:12;;;;;;;6.20;2.63;;;13.50;99.90;;;;;;6068007;23;20204;-76
2022/09/18 05:14:40;;;;;;;8.05;2.60;;;13.50;99.90;;;;;;6066561;23;20267;-76
2022/09/18 05:17:09;;;;;;;13.82;3.60;;;13.50;99.90;;;;;;6068206;23;20196;-77
2022/09/18 05:19:36;;;;;;;7.47;4.03;;;13.40;99.90;;;;;;6067825;23;20203;-76
2022/09/18 05:22:03;;;;;;;5.15;2.90;;;13.40;99.90;;;;;;6068132;23;20215;-78
2022/09/18 05:24:32;;;;;;;6.43;2.63;;;13.40;99.90;;;;;;6068276;23;20513;-78
2022/09/18 05:29:55;;;;;;;5.33;2.67;;;13.40;99.90;;;;;;6066177;23;20220;-77
2022/09/18 05:32:24;;;;;;;4.50;2.10;;;13.50;99.90;;;;;;6067216;23;20448;-79
2022/09/18 05:34:51;;;;;;;8.95;4.10;;;13.50;99.90;;;;;;6068637;23;20239;-77
2022/09/18 05:37:18;;;;;;;4.60;1.90;;;13.50;99.90;;;;;;6067476;23;20208;-72
2022/09/18 05:39:45;;;;;;;6.35;2.38;;;13.50;99.90;;;;;;6067568;23;20261;-78
2022/09/18 05:42:12;;;;;;;4.35;2.40;;;13.50;99.90;;;;;;6068006;23;20211;-77
2022/09/18 05:44:39;;;;;;;2.40;1.50;;;13.50;99.90;;;;;;6067094;23;20226;-79
2022/09/18 05:47:11;;;;;;;6.93;1.60;;;13.50;99.90;;;;;;6068824;23;20204;-77
2022/09/18 05:50:10;;;;;;;4.05;1.40;;;13.50;99.90;;;;;;6064071;23;20204;-77
2022/09/18 05:52:37;;;;;;;4.85;1.98;;;13.50;99.90;;;;;;6008560;23;20268;-76
2022/09/18 05:55:05;;;;;;;5.30;2.15;;;13.50;99.90;;;;;;6053816;23;20238;-78
2022/09/18 05:57:32;;;;;;;5.00;1.92;;;13.50;99.90;;;;;;6067186;23;20649;-77
2022/09/18 05:59:59;;;;;;;11.10;3.80;;;13.40;99.90;;;;;;6068327;23;20200;-78
2022/09/18 06:02:26;;;;;;;5.47;2.13;;;13.40;99.90;;;;;;6070249;23;20219;-78
2022/09/18 06:04:56;;;;;;;9.55;2.20;;;13.40;99.90;;;;;;6067397;23;20640;-79
2022/09/18 06:07:24;;;;;;;7.22;2.95;;;13.40;99.90;;;;;;6069955;23;20304;-78
2022/09/18 06:09:53;;;;;;;8.05;2.58;;;13.40;99.90;;;;;;6068603;23;20230;-77
2022/09/18 06:15:24;;;;;;;5.45;2.90;;;13.40;99.90;;;;;;6052494;23;20195;-78
2022/09/18 06:17:52;;;;;;;5.70;2.10;;;13.40;99.90;;;;;;6069191;23;20211;-79
2022/09/18 06:20:19;;;;;;;5.85;2.50;;;13.30;99.90;;;;;;6069345;23;20564;-77
2022/09/18 06:22:49;;;;;;;7.90;2.78;;;13.30;99.90;;;;;;6068886;23;20200;-78
2022/09/18 06:25:20;;;;;;;6.15;2.08;;;13.30;99.90;;;;;;6070046;23;20236;-77
2022/09/18 06:27:49;;;;;;;7.57;2.50;;;13.30;99.90;;;;;;6068582;23;20255;-77
2022/09/18 06:30:17;;;;;;;13.82;3.42;;;13.30;99.90;;;;;;6069166;23;20493;-79
2022/09/18 06:32:44;;;;;;;7.95;2.00;;;13.30;99.90;;;;;;6068204;23;20228;-77
2022/09/18 06:35:11;;;;;;;5.00;2.33;;;13.30;99.90;;;;;;6069492;23;20211;-78
2022/09/18 06:37:38;;;;;;;4.65;2.33;;;13.30;99.90;;;;;;6067380;23;20212;-77
2022/09/18 06:40:07;;;;;;;6.05;1.83;;;13.30;99.90;;;;;;6055080;23;20220;-78
2022/09/18 06:42:34;;;;;;;6.00;2.20;;;13.30;99.90;;;;;;6068636;23;20208;-77
2022/09/18 06:45:01;;;;;;;10.20;2.50;;;13.30;99.90;;;;;;6068828;23;20636;-77
2022/09/18 06:47:36;;;;;;;5.43;2.38;;;13.40;99.90;;;;;;6069425;23;20275;-77
2022/09/18 06:50:04;;;;;;;7.80;2.17;;;13.40;99.90;;;;;;6041274;23;20274;-77
2022/09/18 06:52:33;;;;;;;8.65;2.40;;;13.40;99.90;;;;;;6068592;23;20214;-77
2022/09/18 06:55:00;;;;;;;4.32;2.00;;;13.50;99.90;;;;;;6057105;23;20218;-76
2022/09/18 06:57:29;;;;;;;9.38;3.08;;;13.50;99.90;;;;;;6069256;23;20219;-78
2022/09/18 06:59:57;;;;;;;6.43;1.92;;;13.50;99.90;;;;;;6068998;23;20219;-78
2022/09/18 07:02:23;;;;;;;7.78;2.20;;;13.50;99.90;;;;;;6068745;23;20224;-77
2022/09/18 07:04:51;;;;;;;6.05;2.45;;;13.50;99.90;;;;;;6067149;23;20279;-76
2022/09/18 07:07:18;;;;;;;5.00;1.98;;;13.60;99.90;;;;;;6069386;23;20507;-78
2022/09/18 07:09:48;;;;;;;12.82;1.88;;;13.60;99.90;;;;;;6067473;23;20284;-78
2022/09/18 07:12:16;;;;;;;6.47;2.30;;;13.60;99.90;;;;;;6066805;23;20204;-78
2022/09/18 07:14:45;;;;;;;6.25;1.80;;;13.70;99.90;;;;;;6068133;23;20223;-77
2022/09/18 07:17:12;;;;;;;4.75;2.13;;;13.70;99.90;;;;;;6068165;23;20270;-77
2022/09/18 07:19:39;;;;;;;5.10;1.45;;;13.70;99.90;;;;;;6068715;23;20203;-77
2022/09/18 07:22:06;;;;;;;3.70;1.35;;;13.70;99.90;;;;;;6068043;23;20208;-79
2022/09/18 07:24:38;;;;;;;2.57;1.93;;;13.70;99.90;;;;;;6068849;23;20563;-78
2022/09/18 07:27:06;;;;;;;9.20;2.58;;;13.70;99.90;;;;;;6067680;23;20844;-76
2022/09/18 07:29:35;;;;;;;4.10;1.80;;;13.80;99.90;;;;;;6068474;23;20271;-77
2022/09/18 07:32:04;;;;;;;7.47;3.47;;;13.80;99.90;;;;;;6068359;23;20299;-77
2022/09/18 07:34:31;;;;;;;5.50;2.28;;;13.90;99.90;;;;;;6054000;23;20204;-78
2022/09/18 07:37:00;;;;;;;10.65;2.33;;;13.90;99.90;;;;;;6068393;23;20656;-79
2022/09/18 07:39:27;;;;;;;8.77;1.90;;;13.90;99.90;;;;;;6069200;23;20689;-78
2022/09/18 07:41:58;;;;;;;6.50;1.70;;;14.00;99.90;;;;;;6054782;23;20437;-78
2022/09/18 07:44:26;;;;;;;5.55;2.40;;;14.00;99.90;;;;;;6066225;23;20428;-77
2022/09/18 07:46:54;;;;;;;3.50;1.57;;;14.10;99.90;;;;;;6054190;23;20279;-78
2022/09/18 07:49:22;;;;;;;11.93;1.73;;;14.10;99.90;;;;;;6068093;23;20441;-77
2022/09/18 07:51:49;;;;;;;4.83;1.90;;;14.10;99.90;;;;;;6068111;23;20228;-79
2022/09/18 07:54:16;;;;;;;5.10;1.90;;;14.10;99.90;;;;;;6067125;23;20983;-78
2022/09/18 07:56:43;;;;;;;5.50;1.80;;;14.10;99.90;;;;;;6069013;23;20460;-78
2022/09/18 07:59:10;;;;;;;7.40;4.30;;;14.20;99.90;;;;;;6068624;23;20989;-77
2022/09/18 08:01:38;;;;;;;6.40;3.20;;;14.20;99.90;;;;;;6069196;23;20920;-78
2022/09/18 08:04:06;;;;;;;5.93;2.30;;;14.30;99.90;;;;;;6069527;23;20491;-78
2022/09/18 08:06:34;;;;;;;6.00;2.00;;;14.40;99.90;;;;;;6054758;23;20456;-77
2022/09/18 08:09:01;;;;;;;10.17;2.63;;;14.40;99.90;;;;;;6067368;23;20437;-76
2022/09/18 08:11:31;;;;;;;6.53;2.00;;;14.40;99.90;;;;;;6067498;23;20519;-78
2022/09/18 08:13:59;;;;;;;2.93;1.93;;;14.40;99.90;;;;;;6068049;23;20452;-78
2022/09/18 08:16:26;;;;;;;5.27;1.83;;;14.50;99.90;;;;;;6064973;23;20436;-77
2022/09/18 08:18:56;;;;;;;6.68;3.40;;;14.50;99.90;;;;;;6056750;23;20920;-77
2022/09/18 08:21:24;;;;;;;8.23;3.20;;;14.60;99.90;;;;;;6050759;23;20204;-80
2022/09/18 08:23:52;;;;;;;3.60;1.60;;;14.60;99.90;;;;;;6068549;23;20496;-78
2022/09/18 08:26:19;;;;;;;2.50;1.50;;;14.60;99.90;;;;;;6056499;23;20436;-76
2022/09/18 08:28:50;;;;;;;7.50;1.90;;;14.60;99.90;;;;;;6067793;23;20429;-76
2022/09/18 08:31:18;;;;;;;4.10;1.30;;;14.60;99.90;;;;;;6068288;23;20455;-78
2022/09/18 08:33:46;;;;;;;6.43;2.33;;;14.70;99.90;;;;;;6066740;23;20722;-78
2022/09/18 08:36:13;;;;;;;4.23;1.53;;;14.70;99.90;;;;;;6068132;23;20471;-76
2022/09/18 08:38:46;;;;;;;6.00;1.83;;;14.70;99.90;;;;;;6067601;23;20505;-78
2022/09/18 08:41:38;;;;;;;7.07;1.87;;;14.80;99.90;;;;;;6068124;23;20781;-76
2022/09/18 08:44:09;;;;;;;4.50;1.70;;;14.90;99.90;;;;;;6068589;23;20513;-78
2022/09/18 08:46:40;;;;;;;2.20;1.63;;;14.90;99.90;;;;;;6068502;23;20510;-78
2022/09/18 08:49:22;;;;;;;2.60;1.17;;;15.00;99.90;;;;;;6067943;23;20827;-78
2022/09/18 08:51:54;;;;;;;2.83;1.70;;;15.00;99.90;;;;;;6068562;23;20939;-79
2022/09/18 08:54:29;;;;;;;5.30;1.53;;;15.10;99.90;;;;;;6052557;23;20436;-78
2022/09/18 08:57:00;;;;;;;6.77;1.87;;;15.20;99.90;;;;;;6067351;23;20439;-79
2022/09/18 08:59:36;;;;;;;5.20;1.67;;;15.20;99.90;;;;;;6053091;23;20441;-79
2022/09/18 09:02:16;;;;;;;7.03;3.30;;;15.30;99.90;;;;;;6067829;23;20452;-77
2022/09/18 09:04:46;;;;;;;6.30;2.80;;;15.30;99.90;;;;;;6068123;23;20440;-76
2022/09/18 09:07:31;;;;;;;5.93;2.93;;;15.40;99.90;;;;;;6068449;23;20920;-76
2022/09/18 09:10:27;;;;;;;8.23;3.63;;;15.40;99.90;;;;;;6067785;23;20441;-76
2022/09/18 09:13:22;;;;;;;5.60;3.40;;;15.50;99.90;;;;;;6056258;23;20445;-77
2022/09/18 09:16:01;;;;;;;4.30;2.57;;;15.60;99.90;;;;;;6068398;23;20451;-78
2022/09/18 09:18:35;;;;;;;7.00;1.77;;;15.60;99.90;;;;;;6068578;23;20486;-77
2022/09/18 09:21:17;;;;;;;3.27;1.40;;;15.70;99.90;;;;;;6066837;23;20432;-79
2022/09/18 09:24:04;;;;;;;2.83;1.57;;;15.70;99.90;;;;;;6067696;23;20440;-77
2022/09/18 09:26:35;;;;;;;4.77;1.50;;;15.70;99.90;;;;;;6067563;23;20934;-78
2022/09/18 09:29:23;;;;;;;3.73;1.37;;;15.80;99.90;;;;;;6066409;23;20479;-79
2022/09/18 09:32:03;;;;;;;1.77;1.23;;;15.90;99.90;;;;;;6055293;23;20964;-77
2022/09/18 09:34:39;;;;;;;4.83;1.40;;;15.90;99.90;;;;;;6068109;23;20425;-77
2022/09/18 09:37:16;;;;;;;2.80;1.60;;;16.00;99.90;;;;;;6069914;23;20436;-77
2022/09/18 09:39:56;;;;;;;3.17;2.40;;;16.00;99.90;;;;;;6069101;23;20472;-79
2022/09/18 09:42:31;;;;;;;3.30;2.17;;;16.00;99.90;;;;;;6069730;23;20896;-78
2022/09/18 09:45:10;;;;;;;5.80;1.87;;;16.10;99.90;;;;;;6069142;23;20439;-78
2022/09/18 09:47:46;;;;;;;3.60;1.63;;;16.10;99.90;;;;;;6068659;23;20499;-78
2022/09/18 09:50:29;;;;;;;3.33;1.40;;;16.10;99.90;;;;;;6069565;23;20452;-78
2022/09/18 09:53:00;;;;;;;4.03;1.77;;;16.10;99.90;;;;;;6067852;23;20484;-78
2022/09/18 09:55:32;;;;;;;3.93;1.87;;;16.20;99.90;;;;;;6070604;23;20471;-76
2022/09/18 09:58:08;;;;;;;3.43;1.97;;;16.30;99.90;;;;;;6069319;23;20486;-77
2022/09/18 10:00:42;;;;;;;4.80;2.00;;;16.30;99.90;;;;;;6069983;23;20781;-76
2022/09/18 10:03:28;;;;;;;3.33;1.90;;;16.30;99.90;;;;;;6069330;23;20445;-76
2022/09/18 10:06:03;;;;;;;8.53;1.90;;;16.30;99.90;;;;;;6069269;23;20745;-77
2022/09/18 10:08:37;;;;;;;4.23;2.50;;;16.30;99.90;;;;;;6069814;23;20432;-76
2022/09/18 10:11:10;;;;;;;3.43;1.53;;;16.20;99.90;;;;;;6068740;23;20544;-78
2022/09/18 10:13:41;;;;;;;4.10;1.70;;;16.20;99.90;;;;;;6070103;23;20442;-77
2022/09/18 10:16:18;;;;;;;4.80;2.17;;;16.20;99.90;;;;;;6068766;23;20793;-77
2022/09/18 10:18:47;;;;;;;3.23;1.70;;;16.20;99.90;;;;;;6069610;23;20437;-77
2022/09/18 10:21:21;;;;;;;5.70;1.43;;;16.20;99.90;;;;;;6066159;23;20908;-77
2022/09/18 10:23:54;;;;;;;3.57;1.30;;;16.20;99.90;;;;;;6069888;23;20444;-77
2022/09/18 10:26:25;;;;;;;1.80;1.30;;;16.30;99.90;;;;;;6070127;23;20805;-78
2022/09/18 10:28:52;;;;;;;3.00;1.83;;;16.30;99.90;;;;;;6069190;23;20468;-78
2022/09/18 10:31:23;;;;;;;3.53;1.30;;;16.40;99.90;;;;;;6069425;23;20492;-78
2022/09/18 10:33:53;;;;;;;3.40;1.87;;;16.40;99.90;;;;;;6069858;23;20440;-78
2022/09/18 10:36:24;;;;;;;4.73;2.07;;;16.40;99.90;;;;;;6056812;23;20734;-79
2022/09/18 10:38:52;;;;;;;4.50;2.60;;;16.40;99.90;;;;;;6070055;23;20794;-79
2022/09/18 10:41:26;;;;;;;9.70;4.80;;;16.40;99.90;;;;;;6069142;23;20440;-77
2022/09/18 10:44:26;;;;;;;4.13;3.00;;;16.40;99.90;;;;;;6069520;23;20455;-78
2022/09/18 10:46:59;;;;;;;4.33;2.50;;;16.40;99.90;;;;;;6052637;23;20476;-76
2022/09/18 10:49:31;;;;;;;5.53;2.07;;;16.40;99.90;;;;;;6069014;23;20469;-77
2022/09/18 10:52:23;;;;;;;5.37;1.90;;;16.40;99.90;;;;;;6068318;23;20445;-79
2022/09/18 10:55:06;;;;;;;4.70;1.60;;;16.50;99.90;;;;;;6068946;23;20465;-76
2022/09/18 10:57:35;;;;;;;6.87;4.60;;;16.50;99.90;;;;;;6055508;23;20448;-78
2022/09/18 11:00:10;;;;;;;8.90;3.57;;;16.60;99.90;;;;;;6068302;23;20447;-78
2022/09/18 11:02:44;;;;;;;4.77;2.70;;;16.60;99.90;;;;;;6070244;23;20444;-78
2022/09/18 11:05:17;;;;;;;3.60;1.40;;;16.60;99.90;;;;;;6067255;23;20542;-78
2022/09/18 11:07:49;;;;;;;5.07;1.67;;;16.70;99.90;;;;;;6068906;23;20957;-79
2022/09/18 11:10:18;;;;;;;2.40;1.77;;;16.70;99.90;;;;;;6068394;23;20437;-78
2022/09/18 11:12:49;;;;;;;4.23;1.90;;;16.70;99.90;;;;;;6068590;23;20504;-78
2022/09/18 11:15:19;;;;;;;2.47;1.87;;;16.70;99.90;;;;;;6069604;23;20429;-78
2022/09/18 11:17:52;;;;;;;2.23;1.60;;;16.80;99.90;;;;;;6069997;23;20915;-77
2022/09/18 11:20:26;;;;;;;6.47;4.37;;;16.80;99.70;;;;;;6055139;23;20442;-79
2022/09/18 11:22:54;;;;;;;4.20;2.00;;;16.80;99.70;;;;;;6055095;23;20517;-78
2022/09/18 11:25:26;;;;;;;4.50;1.37;;;16.70;99.60;;;;;;6068561;23;20826;-77
2022/09/18 11:27:54;;;;;;;2.20;1.13;;;16.70;99.50;;;;;;6055416;23;20441;-76
2022/09/18 11:30:24;;;;;;;6.27;1.83;;;16.70;99.60;;;;;;6067852;23;20447;-77
2022/09/18 11:32:57;;;;;;;3.10;1.40;;;16.60;99.80;;;;;;6057679;23;20446;-77
2022/09/18 11:35:37;;;;;;;3.00;1.20;;;16.50;99.90;;;;;;6069565;23;20519;-77
2022/09/18 11:38:07;;;;;;;2.40;1.40;;;16.40;99.90;;;;;;6069042;23;20973;-78
2022/09/18 11:40:43;;;;;;;4.40;1.43;;;16.40;99.90;;;;;;6065191;23;20459;-78
2022/09/18 11:43:15;;;;;;;1.50;0.93;;;16.40;99.90;;;;;;6068595;23;20499;-76
2022/09/18 11:45:52;;;;;;;2.40;1.00;;;16.30;99.90;;;;;;6068528;23;20476;-78
2022/09/18 11:48:30;;;;;;;2.17;1.10;;;16.30;99.90;;;;;;6068895;23;20440;-77
2022/09/18 11:51:03;;;;;;;3.97;1.10;;;16.20;99.90;;;;;;6069277;23;20433;-76
2022/09/18 11:53:35;;;;;;;2.27;1.00;;;16.20;99.90;;;;;;6068180;23;20476;-77
2022/09/18 11:56:07;;;;;;;2.73;1.10;;;16.20;99.90;;;;;;6069133;23;20437;-75
2022/09/18 11:58:46;;;;;;;1.47;0.90;;;16.30;99.90;;;;;;6067445;23;20443;-75
2022/09/18 12:01:23;;;;;;;1.30;0.80;;;16.30;99.90;;;;;;6068298;23;20914;-76
2022/09/18 12:04:01;;;;;;;1.47;1.23;;;16.30;99.90;;;;;;6068194;23;20452;-78
2022/09/18 12:06:48;;;;;;;3.03;1.10;;;16.40;99.90;;;;;;6065686;23;20465;-77
2022/09/18 12:09:48;;;;;;;4.23;1.50;;;16.40;99.90;;;;;;6062411;23;20466;-76
2022/09/18 12:12:21;;;;;;;2.80;1.43;;;16.40;99.90;;;;;;6068346;23;20496;-78
2022/09/18 12:14:53;;;;;;;1.80;1.30;;;16.50;99.90;;;;;;6068605;23;20438;-76
2022/09/18 12:17:26;;;;;;;2.23;1.20;;;16.40;99.90;;;;;;6068436;23;20786;-76
2022/09/18 12:19:58;;;;;;;1.33;1.23;;;16.30;99.90;;;;;;6068481;23;20441;-76
2022/09/18 12:22:31;;;;;;;1.90;1.00;;;16.30;99.90;;;;;;6066168;23;20436;-77
2022/09/18 12:24:59;;;;;;;1.23;0.90;;;16.20;99.90;;;;;;6068079;23;20583;-77
2022/09/18 12:27:32;;;;;;;1.90;1.00;;;16.10;99.90;;;;;;6068007;23;20431;-75
2022/09/18 12:30:08;;;;;;;4.07;1.10;;;16.00;99.90;;;;;;6068057;23;20451;-79
2022/09/18 12:32:52;;;;;;;3.30;1.10;;;16.00;99.90;;;;;;6067651;23;20455;-76
2022/09/18 12:35:30;;;;;;;3.70;1.50;;;15.90;99.90;;;;;;6067477;23;20441;-77
2022/09/18 12:38:09;;;;;;;2.20;1.47;;;15.90;99.90;;;;;;6067864;23;20508;-77
2022/09/18 12:40:52;;;;;;;1.70;1.60;;;15.90;99.90;;;;;;6067754;23;20467;-76
2022/09/18 12:43:42;;;;;;;2.10;1.07;;;15.80;99.90;;;;;;6071413;23;20454;-79
2022/09/18 12:46:30;;;;;;;3.37;0.97;;;15.80;99.90;;;;;;6064546;23;20467;-77
2022/09/18 12:49:19;;;;;;;2.10;1.00;;;15.80;99.90;;;;;;6066547;23;20444;-77
2022/09/18 12:51:52;;;;;;;2.57;1.37;;;15.80;99.90;;;;;;6074008;23;20440;-77
2022/09/18 12:54:51;;;;;;;2.57;1.07;;;15.80;99.90;;;;;;6072841;23;20443;-77
2022/09/18 12:57:59;;;;;;;2.20;1.10;;;15.80;99.90;;;;;;6067705;23;20725;-78
2022/09/18 13:00:30;;;;;;;2.03;1.60;;;15.90;99.90;;;;;;5981115;23;20459;-79
2022/09/18 13:03:04;;;;;;;2.60;1.30;;;15.90;99.90;;;;;;5981644;23;20447;-75
2022/09/18 13:05:36;;;;;;;2.93;1.30;;;15.90;99.90;;;;;;6028152;23;20492;-78
2022/09/18 13:08:10;;;;;;;3.63;0.90;;;16.00;99.90;;;;;;6067213;23;20436;-79
2022/09/18 13:10:42;;;;;;;1.70;1.17;;;16.00;99.90;;;;;;6067862;23;20546;-79
2022/09/18 13:13:15;;;;;;;1.83;1.40;;;16.00;99.90;;;;;;6068432;23;20508;-78
2022/09/18 13:15:48;;;;;;;3.43;1.83;;;16.00;99.90;;;;;;6067877;23;20446;-79
2022/09/18 13:18:27;;;;;;;4.50;1.40;;;16.00;99.90;;;;;;6068569;23;20451;-76
2022/09/18 13:20:58;;;;;;;1.60;1.50;;;16.10;99.90;;;;;;6068815;23;20444;-76
2022/09/18 13:23:31;;;;;;;2.03;1.10;;;16.10;99.90;;;;;;6065537;23;20432;-76